sensor_id;sensor_type;location;lat;lon;timestamp;P1;durP1;ratioP1;P2;durP2;ratioP2
11522;SDS011;40093;43.224;27.910;2023-03-13T00:01:26;9.53;;;7.73;;
11522;SDS011;40093;43.224;27.910;2023-03-13T00:03:55;14.13;;;11.00;;
11522;SDS011;40093;43.224;27.910;2023-03-13T00:06:22;12.97;;;6.80;;
11522;SDS011;40093;43.224;27.910;2023-03-13T00:08:50;9.03;;;6.50;;
11522;SDS011;40093;43.224;27.910;2023-03-13T00:11:19;11.13;;;6.80;;
11522;SDS011;40093;43.224;27.910;2023-03-13T00:13:46;10.80;;;7.63;;
11522;SDS011;40093;43.224;27.910;2023-03-13T00:16:14;8.70;;;7.00;;
11522;SDS011;40093;43.224;27.910;2023-03-13T00:18:45;9.47;;;6.60;;
11522;SDS011;40093;43.224;27.910;2023-03-13T00:21:12;18.83;;;8.90;;
11522;SDS011;40093;43.224;27.910;2023-03-13T00:23:39;10.77;;;8.33;;
11522;SDS011;40093;43.224;27.910;2023-03-13T00:26:07;11.37;;;7.77;;
11522;SDS011;40093;43.224;27.910;2023-03-13T00:28:37;8.00;;;6.40;;
11522;SDS011;40093;43.224;27.910;2023-03-13T00:31:05;9.43;;;7.13;;
11522;SDS011;40093;43.224;27.910;2023-03-13T00:33:34;10.40;;;7.43;;
11522;SDS011;40093;43.224;27.910;2023-03-13T00:36:03;16.57;;;10.00;;
11522;SDS011;40093;43.224;27.910;2023-03-13T00:38:32;15.80;;;12.97;;
11522;SDS011;40093;43.224;27.910;2023-03-13T00:40:59;16.23;;;11.27;;
11522;SDS011;40093;43.224;27.910;2023-03-13T00:43:27;16.23;;;12.10;;
11522;SDS011;40093;43.224;27.910;2023-03-13T00:45:56;21.83;;;15.37;;
11522;SDS011;40093;43.224;27.910;2023-03-13T00:48:23;20.50;;;14.73;;
11522;SDS011;40093;43.224;27.910;2023-03-13T00:50:50;17.73;;;13.83;;
11522;SDS011;40093;43.224;27.910;2023-03-13T00:53:17;19.47;;;13.47;;
11522;SDS011;40093;43.224;27.910;2023-03-13T00:55:51;17.23;;;13.73;;
11522;SDS011;40093;43.224;27.910;2023-03-13T00:58:19;19.20;;;13.90;;
11522;SDS011;40093;43.224;27.910;2023-03-13T01:00:46;16.70;;;13.53;;
11522;SDS011;40093;43.224;27.910;2023-03-13T01:03:15;18.40;;;13.47;;
11522;SDS011;40093;43.224;27.910;2023-03-13T01:05:42;17.40;;;13.77;;
11522;SDS011;40093;43.224;27.910;2023-03-13T01:08:08;19.90;;;14.17;;
11522;SDS011;40093;43.224;27.910;2023-03-13T01:10:36;17.40;;;12.90;;
11522;SDS011;40093;43.224;27.910;2023-03-13T01:13:03;19.30;;;13.50;;
11522;SDS011;40093;43.224;27.910;2023-03-13T01:15:33;18.77;;;12.57;;
11522;SDS011;40093;43.224;27.910;2023-03-13T01:18:00;18.43;;;12.70;;
11522;SDS011;40093;43.224;27.910;2023-03-13T01:20:29;17.67;;;12.50;;
11522;SDS011;40093;43.224;27.910;2023-03-13T01:22:56;18.73;;;13.33;;
11522;SDS011;40093;43.224;27.910;2023-03-13T01:25:23;18.17;;;13.17;;
11522;SDS011;40093;43.224;27.910;2023-03-13T01:27:50;20.13;;;12.97;;
11522;SDS011;40093;43.224;27.910;2023-03-13T01:30:17;19.10;;;12.73;;
11522;SDS011;40093;43.224;27.910;2023-03-13T01:32:44;15.03;;;12.23;;
11522;SDS011;40093;43.224;27.910;2023-03-13T01:35:10;16.37;;;12.13;;
11522;SDS011;40093;43.224;27.910;2023-03-13T01:37:39;17.23;;;11.37;;
11522;SDS011;40093;43.224;27.910;2023-03-13T01:40:06;17.90;;;13.40;;
11522;SDS011;40093;43.224;27.910;2023-03-13T01:42:47;20.77;;;12.40;;
11522;SDS011;40093;43.224;27.910;2023-03-13T01:48:25;14.73;;;11.67;;
11522;SDS011;40093;43.224;27.910;2023-03-13T01:50:57;17.73;;;12.20;;
11522;SDS011;40093;43.224;27.910;2023-03-13T01:53:28;21.43;;;15.77;;
11522;SDS011;40093;43.224;27.910;2023-03-13T01:55:57;20.33;;;14.93;;
11522;SDS011;40093;43.224;27.910;2023-03-13T01:58:26;16.07;;;12.60;;
11522;SDS011;40093;43.224;27.910;2023-03-13T02:00:55;18.80;;;13.27;;
11522;SDS011;40093;43.224;27.910;2023-03-13T02:03:23;18.47;;;12.50;;
11522;SDS011;40093;43.224;27.910;2023-03-13T02:05:53;23.43;;;14.87;;
11522;SDS011;40093;43.224;27.910;2023-03-13T02:08:22;31.73;;;17.73;;
11522;SDS011;40093;43.224;27.910;2023-03-13T02:10:55;29.43;;;15.53;;
11522;SDS011;40093;43.224;27.910;2023-03-13T02:13:28;19.23;;;13.70;;
11522;SDS011;40093;43.224;27.910;2023-03-13T02:15:55;17.67;;;13.03;;
11522;SDS011;40093;43.224;27.910;2023-03-13T02:18:23;18.77;;;12.77;;
11522;SDS011;40093;43.224;27.910;2023-03-13T02:20:50;18.33;;;12.23;;
11522;SDS011;40093;43.224;27.910;2023-03-13T02:23:26;16.20;;;12.60;;
11522;SDS011;40093;43.224;27.910;2023-03-13T02:25:59;36.90;;;26.50;;
11522;SDS011;40093;43.224;27.910;2023-03-13T02:28:27;41.13;;;27.97;;
11522;SDS011;40093;43.224;27.910;2023-03-13T02:30:58;26.53;;;18.53;;
11522;SDS011;40093;43.224;27.910;2023-03-13T02:33:26;19.70;;;15.10;;
11522;SDS011;40093;43.224;27.910;2023-03-13T02:35:55;17.70;;;13.77;;
11522;SDS011;40093;43.224;27.910;2023-03-13T02:38:24;16.80;;;12.03;;
11522;SDS011;40093;43.224;27.910;2023-03-13T02:40:54;15.60;;;11.90;;
11522;SDS011;40093;43.224;27.910;2023-03-13T02:43:25;16.60;;;12.33;;
11522;SDS011;40093;43.224;27.910;2023-03-13T02:46:02;16.07;;;12.27;;
11522;SDS011;40093;43.224;27.910;2023-03-13T02:48:31;14.60;;;11.70;;
11522;SDS011;40093;43.224;27.910;2023-03-13T02:51:01;19.47;;;13.03;;
11522;SDS011;40093;43.224;27.910;2023-03-13T02:53:30;21.10;;;15.03;;
11522;SDS011;40093;43.224;27.910;2023-03-13T02:55:59;21.53;;;16.67;;
11522;SDS011;40093;43.224;27.910;2023-03-13T02:58:27;23.53;;;17.43;;
11522;SDS011;40093;43.224;27.910;2023-03-13T03:01:01;26.03;;;17.50;;
11522;SDS011;40093;43.224;27.910;2023-03-13T03:03:31;26.47;;;18.43;;
11522;SDS011;40093;43.224;27.910;2023-03-13T03:05:59;25.40;;;18.13;;
11522;SDS011;40093;43.224;27.910;2023-03-13T03:08:26;27.07;;;18.87;;
11522;SDS011;40093;43.224;27.910;2023-03-13T03:10:54;26.47;;;19.13;;
11522;SDS011;40093;43.224;27.910;2023-03-13T03:13:21;28.00;;;19.10;;
11522;SDS011;40093;43.224;27.910;2023-03-13T03:15:49;27.37;;;19.67;;
11522;SDS011;40093;43.224;27.910;2023-03-13T03:18:16;28.87;;;20.17;;
11522;SDS011;40093;43.224;27.910;2023-03-13T03:20:43;26.23;;;19.97;;
11522;SDS011;40093;43.224;27.910;2023-03-13T03:23:10;25.50;;;20.50;;
11522;SDS011;40093;43.224;27.910;2023-03-13T03:25:37;27.03;;;20.60;;
11522;SDS011;40093;43.224;27.910;2023-03-13T03:28:04;26.67;;;20.27;;
11522;SDS011;40093;43.224;27.910;2023-03-13T03:30:31;28.93;;;22.23;;
11522;SDS011;40093;43.224;27.910;2023-03-13T03:33:01;32.63;;;22.60;;
11522;SDS011;40093;43.224;27.910;2023-03-13T03:35:28;33.57;;;22.80;;
11522;SDS011;40093;43.224;27.910;2023-03-13T03:37:55;29.17;;;22.10;;
11522;SDS011;40093;43.224;27.910;2023-03-13T03:40:22;29.57;;;21.37;;
11522;SDS011;40093;43.224;27.910;2023-03-13T03:42:49;29.37;;;20.43;;
11522;SDS011;40093;43.224;27.910;2023-03-13T03:45:15;27.97;;;20.13;;
11522;SDS011;40093;43.224;27.910;2023-03-13T03:47:42;26.80;;;19.50;;
11522;SDS011;40093;43.224;27.910;2023-03-13T03:50:11;26.23;;;19.40;;
11522;SDS011;40093;43.224;27.910;2023-03-13T03:52:38;27.20;;;19.33;;
11522;SDS011;40093;43.224;27.910;2023-03-13T03:55:05;27.13;;;18.60;;
11522;SDS011;40093;43.224;27.910;2023-03-13T03:57:32;24.30;;;17.93;;
11522;SDS011;40093;43.224;27.910;2023-03-13T03:59:59;22.67;;;17.30;;
11522;SDS011;40093;43.224;27.910;2023-03-13T04:02:26;25.30;;;17.33;;
11522;SDS011;40093;43.224;27.910;2023-03-13T04:04:53;21.07;;;15.73;;
11522;SDS011;40093;43.224;27.910;2023-03-13T04:07:21;22.77;;;16.57;;
11522;SDS011;40093;43.224;27.910;2023-03-13T04:09:48;22.73;;;16.13;;
11522;SDS011;40093;43.224;27.910;2023-03-13T04:12:15;21.37;;;15.93;;
11522;SDS011;40093;43.224;27.910;2023-03-13T04:14:41;21.97;;;16.13;;
11522;SDS011;40093;43.224;27.910;2023-03-13T04:17:08;26.27;;;17.00;;
11522;SDS011;40093;43.224;27.910;2023-03-13T04:19:35;26.27;;;17.10;;
11522;SDS011;40093;43.224;27.910;2023-03-13T04:22:02;26.83;;;18.63;;
11522;SDS011;40093;43.224;27.910;2023-03-13T04:24:30;23.17;;;17.67;;
11522;SDS011;40093;43.224;27.910;2023-03-13T04:26:57;22.63;;;16.10;;
11522;SDS011;40093;43.224;27.910;2023-03-13T04:29:25;21.57;;;15.03;;
11522;SDS011;40093;43.224;27.910;2023-03-13T04:31:52;22.00;;;15.30;;
11522;SDS011;40093;43.224;27.910;2023-03-13T04:34:19;19.33;;;13.77;;
11522;SDS011;40093;43.224;27.910;2023-03-13T04:36:46;18.07;;;14.03;;
11522;SDS011;40093;43.224;27.910;2023-03-13T04:39:13;23.67;;;18.03;;
11522;SDS011;40093;43.224;27.910;2023-03-13T04:41:41;24.80;;;19.77;;
11522;SDS011;40093;43.224;27.910;2023-03-13T04:44:08;22.43;;;15.73;;
11522;SDS011;40093;43.224;27.910;2023-03-13T04:46:36;21.43;;;15.27;;
11522;SDS011;40093;43.224;27.910;2023-03-13T04:49:03;21.87;;;14.73;;
11522;SDS011;40093;43.224;27.910;2023-03-13T04:51:30;23.33;;;14.30;;
11522;SDS011;40093;43.224;27.910;2023-03-13T04:53:59;21.40;;;14.53;;
11522;SDS011;40093;43.224;27.910;2023-03-13T04:56:27;21.77;;;15.33;;
11522;SDS011;40093;43.224;27.910;2023-03-13T04:59:02;24.00;;;15.80;;
11522;SDS011;40093;43.224;27.910;2023-03-13T05:01:29;24.93;;;16.77;;
11522;SDS011;40093;43.224;27.910;2023-03-13T05:03:56;26.73;;;17.47;;
11522;SDS011;40093;43.224;27.910;2023-03-13T05:06:23;24.87;;;17.03;;
11522;SDS011;40093;43.224;27.910;2023-03-13T05:08:50;25.50;;;17.63;;
11522;SDS011;40093;43.224;27.910;2023-03-13T05:11:17;23.23;;;16.37;;
11522;SDS011;40093;43.224;27.910;2023-03-13T05:13:44;26.17;;;16.87;;
11522;SDS011;40093;43.224;27.910;2023-03-13T05:16:12;30.97;;;16.83;;
11522;SDS011;40093;43.224;27.910;2023-03-13T05:18:39;29.20;;;16.40;;
11522;SDS011;40093;43.224;27.910;2023-03-13T05:21:06;23.83;;;16.10;;
11522;SDS011;40093;43.224;27.910;2023-03-13T05:23:33;26.57;;;16.90;;
11522;SDS011;40093;43.224;27.910;2023-03-13T05:26:00;30.23;;;18.23;;
11522;SDS011;40093;43.224;27.910;2023-03-13T05:28:27;30.17;;;18.60;;
11522;SDS011;40093;43.224;27.910;2023-03-13T05:30:54;32.07;;;19.63;;
11522;SDS011;40093;43.224;27.910;2023-03-13T05:33:22;34.63;;;22.93;;
11522;SDS011;40093;43.224;27.910;2023-03-13T05:35:49;43.27;;;24.57;;
11522;SDS011;40093;43.224;27.910;2023-03-13T05:38:16;43.17;;;26.73;;
11522;SDS011;40093;43.224;27.910;2023-03-13T05:40:43;37.83;;;26.67;;
11522;SDS011;40093;43.224;27.910;2023-03-13T05:43:09;41.27;;;26.50;;
11522;SDS011;40093;43.224;27.910;2023-03-13T05:45:36;43.30;;;25.47;;
11522;SDS011;40093;43.224;27.910;2023-03-13T05:48:03;39.77;;;22.77;;
11522;SDS011;40093;43.224;27.910;2023-03-13T05:50:32;33.87;;;22.50;;
11522;SDS011;40093;43.224;27.910;2023-03-13T05:52:59;35.40;;;21.93;;
11522;SDS011;40093;43.224;27.910;2023-03-13T05:55:26;34.30;;;23.33;;
11522;SDS011;40093;43.224;27.910;2023-03-13T05:57:53;39.37;;;26.40;;
11522;SDS011;40093;43.224;27.910;2023-03-13T06:00:19;47.73;;;30.83;;
11522;SDS011;40093;43.224;27.910;2023-03-13T06:02:47;39.63;;;24.37;;
11522;SDS011;40093;43.224;27.910;2023-03-13T06:05:13;42.67;;;24.80;;
11522;SDS011;40093;43.224;27.910;2023-03-13T06:07:42;42.43;;;25.33;;
11522;SDS011;40093;43.224;27.910;2023-03-13T06:10:09;39.90;;;24.50;;
11522;SDS011;40093;43.224;27.910;2023-03-13T06:12:37;33.23;;;24.40;;
11522;SDS011;40093;43.224;27.910;2023-03-13T06:15:04;42.13;;;23.57;;
11522;SDS011;40093;43.224;27.910;2023-03-13T06:17:33;40.57;;;25.87;;
11522;SDS011;40093;43.224;27.910;2023-03-13T06:20:01;46.80;;;26.80;;
11522;SDS011;40093;43.224;27.910;2023-03-13T06:22:30;38.67;;;27.00;;
11522;SDS011;40093;43.224;27.910;2023-03-13T06:24:58;41.50;;;27.33;;
11522;SDS011;40093;43.224;27.910;2023-03-13T06:27:25;37.07;;;25.30;;
11522;SDS011;40093;43.224;27.910;2023-03-13T06:29:52;37.03;;;25.33;;
11522;SDS011;40093;43.224;27.910;2023-03-13T06:32:19;47.57;;;25.53;;
11522;SDS011;40093;43.224;27.910;2023-03-13T06:34:47;42.93;;;24.07;;
11522;SDS011;40093;43.224;27.910;2023-03-13T06:37:14;41.47;;;24.83;;
11522;SDS011;40093;43.224;27.910;2023-03-13T06:39:40;42.37;;;26.17;;
11522;SDS011;40093;43.224;27.910;2023-03-13T06:42:09;41.07;;;26.53;;
11522;SDS011;40093;43.224;27.910;2023-03-13T06:44:36;48.60;;;26.10;;
11522;SDS011;40093;43.224;27.910;2023-03-13T06:47:03;45.57;;;25.17;;
11522;SDS011;40093;43.224;27.910;2023-03-13T06:49:30;38.03;;;24.93;;
11522;SDS011;40093;43.224;27.910;2023-03-13T06:51:57;37.17;;;23.90;;
11522;SDS011;40093;43.224;27.910;2023-03-13T06:54:24;40.13;;;25.67;;
11522;SDS011;40093;43.224;27.910;2023-03-13T06:56:51;44.70;;;24.77;;
11522;SDS011;40093;43.224;27.910;2023-03-13T06:59:20;43.03;;;23.67;;
11522;SDS011;40093;43.224;27.910;2023-03-13T07:01:47;36.77;;;24.53;;
11522;SDS011;40093;43.224;27.910;2023-03-13T07:04:14;32.67;;;22.47;;
11522;SDS011;40093;43.224;27.910;2023-03-13T07:06:41;36.30;;;23.13;;
11522;SDS011;40093;43.224;27.910;2023-03-13T07:09:08;37.03;;;23.13;;
11522;SDS011;40093;43.224;27.910;2023-03-13T07:11:35;36.33;;;23.37;;
11522;SDS011;40093;43.224;27.910;2023-03-13T07:14:02;37.97;;;24.10;;
11522;SDS011;40093;43.224;27.910;2023-03-13T07:16:31;46.50;;;28.80;;
11522;SDS011;40093;43.224;27.910;2023-03-13T07:18:58;49.23;;;31.63;;
11522;SDS011;40093;43.224;27.910;2023-03-13T07:21:24;53.53;;;35.00;;
11522;SDS011;40093;43.224;27.910;2023-03-13T07:23:51;47.97;;;36.83;;
11522;SDS011;40093;43.224;27.910;2023-03-13T07:26:19;43.97;;;34.00;;
11522;SDS011;40093;43.224;27.910;2023-03-13T07:28:46;47.03;;;31.03;;
11522;SDS011;40093;43.224;27.910;2023-03-13T07:31:13;39.60;;;28.93;;
11522;SDS011;40093;43.224;27.910;2023-03-13T07:33:43;34.60;;;26.33;;
11522;SDS011;40093;43.224;27.910;2023-03-13T07:36:10;27.50;;;20.93;;
11522;SDS011;40093;43.224;27.910;2023-03-13T07:38:38;30.80;;;22.70;;
11522;SDS011;40093;43.224;27.910;2023-03-13T07:41:09;31.50;;;21.03;;
11522;SDS011;40093;43.224;27.910;2023-03-13T07:43:37;27.73;;;21.47;;
11522;SDS011;40093;43.224;27.910;2023-03-13T07:46:06;30.47;;;20.93;;
11522;SDS011;40093;43.224;27.910;2023-03-13T07:48:35;28.87;;;21.60;;
11522;SDS011;40093;43.224;27.910;2023-03-13T07:51:05;28.63;;;20.80;;
11522;SDS011;40093;43.224;27.910;2023-03-13T07:53:35;10.43;;;7.07;;
11522;SDS011;40093;43.224;27.910;2023-03-13T07:56:03;9.37;;;6.80;;
11522;SDS011;40093;43.224;27.910;2023-03-13T07:58:32;5.80;;;4.23;;
11522;SDS011;40093;43.224;27.910;2023-03-13T08:01:00;10.03;;;4.37;;
11522;SDS011;40093;43.224;27.910;2023-03-13T08:03:33;7.47;;;4.90;;
11522;SDS011;40093;43.224;27.910;2023-03-13T08:06:00;9.87;;;7.60;;
11522;SDS011;40093;43.224;27.910;2023-03-13T08:08:30;5.73;;;3.10;;
11522;SDS011;40093;43.224;27.910;2023-03-13T08:11:00;3.07;;;2.57;;
11522;SDS011;40093;43.224;27.910;2023-03-13T08:13:27;5.73;;;2.73;;
11522;SDS011;40093;43.224;27.910;2023-03-13T08:16:02;11.40;;;7.20;;
11522;SDS011;40093;43.224;27.910;2023-03-13T08:18:29;3.20;;;2.40;;
11522;SDS011;40093;43.224;27.910;2023-03-13T08:21:00;5.50;;;3.00;;
11522;SDS011;40093;43.224;27.910;2023-03-13T08:23:28;4.50;;;2.60;;
11522;SDS011;40093;43.224;27.910;2023-03-13T08:26:00;2.90;;;2.57;;
11522;SDS011;40093;43.224;27.910;2023-03-13T08:28:27;6.23;;;2.60;;
11522;SDS011;40093;43.224;27.910;2023-03-13T08:30:54;5.07;;;2.57;;
11522;SDS011;40093;43.224;27.910;2023-03-13T08:33:21;4.10;;;2.37;;
11522;SDS011;40093;43.224;27.910;2023-03-13T08:35:48;4.30;;;2.13;;
11522;SDS011;40093;43.224;27.910;2023-03-13T08:38:15;7.70;;;2.37;;
11522;SDS011;40093;43.224;27.910;2023-03-13T08:40:44;4.90;;;2.23;;
11522;SDS011;40093;43.224;27.910;2023-03-13T08:43:10;3.37;;;2.03;;
11522;SDS011;40093;43.224;27.910;2023-03-13T08:45:37;2.93;;;1.90;;
11522;SDS011;40093;43.224;27.910;2023-03-13T08:48:04;2.13;;;1.83;;
11522;SDS011;40093;43.224;27.910;2023-03-13T08:50:31;9.27;;;2.10;;
11522;SDS011;40093;43.224;27.910;2023-03-13T08:52:58;3.33;;;1.90;;
11522;SDS011;40093;43.224;27.910;2023-03-13T08:55:25;3.40;;;2.20;;
11522;SDS011;40093;43.224;27.910;2023-03-13T08:57:53;3.37;;;2.13;;
11522;SDS011;40093;43.224;27.910;2023-03-13T09:00:20;6.33;;;1.80;;
11522;SDS011;40093;43.224;27.910;2023-03-13T09:02:48;2.40;;;2.00;;
11522;SDS011;40093;43.224;27.910;2023-03-13T09:05:14;2.97;;;1.87;;
11522;SDS011;40093;43.224;27.910;2023-03-13T09:07:43;3.30;;;2.10;;
11522;SDS011;40093;43.224;27.910;2023-03-13T09:10:09;4.27;;;1.90;;
11522;SDS011;40093;43.224;27.910;2023-03-13T09:12:36;2.67;;;1.70;;
11522;SDS011;40093;43.224;27.910;2023-03-13T09:15:06;4.50;;;2.30;;
11522;SDS011;40093;43.224;27.910;2023-03-13T09:17:34;2.33;;;2.13;;
11522;SDS011;40093;43.224;27.910;2023-03-13T09:20:01;4.53;;;2.27;;
11522;SDS011;40093;43.224;27.910;2023-03-13T09:22:28;7.23;;;2.13;;
11522;SDS011;40093;43.224;27.910;2023-03-13T09:24:55;5.03;;;2.67;;
11522;SDS011;40093;43.224;27.910;2023-03-13T09:27:22;6.30;;;2.97;;
11522;SDS011;40093;43.224;27.910;2023-03-13T09:29:49;3.87;;;2.50;;
11522;SDS011;40093;43.224;27.910;2023-03-13T09:32:17;3.90;;;2.30;;
11522;SDS011;40093;43.224;27.910;2023-03-13T09:34:44;6.10;;;3.07;;
11522;SDS011;40093;43.224;27.910;2023-03-13T09:37:11;6.27;;;2.77;;
11522;SDS011;40093;43.224;27.910;2023-03-13T09:39:38;6.37;;;3.67;;
11522;SDS011;40093;43.224;27.910;2023-03-13T09:42:06;5.87;;;2.60;;
11522;SDS011;40093;43.224;27.910;2023-03-13T09:44:40;3.23;;;2.90;;
11522;SDS011;40093;43.224;27.910;2023-03-13T09:47:11;4.33;;;3.30;;
11522;SDS011;40093;43.224;27.910;2023-03-13T09:49:47;5.93;;;3.17;;
11522;SDS011;40093;43.224;27.910;2023-03-13T09:52:19;3.97;;;2.83;;
11522;SDS011;40093;43.224;27.910;2023-03-13T09:54:49;6.77;;;3.20;;
11522;SDS011;40093;43.224;27.910;2023-03-13T09:57:23;5.63;;;3.03;;
11522;SDS011;40093;43.224;27.910;2023-03-13T09:59:57;6.90;;;3.60;;
11522;SDS011;40093;43.224;27.910;2023-03-13T10:02:31;6.30;;;3.00;;
11522;SDS011;40093;43.224;27.910;2023-03-13T10:05:01;4.13;;;2.53;;
11522;SDS011;40093;43.224;27.910;2023-03-13T10:07:33;5.27;;;2.67;;
11522;SDS011;40093;43.224;27.910;2023-03-13T10:10:00;5.57;;;2.37;;
11522;SDS011;40093;43.224;27.910;2023-03-13T10:12:30;6.63;;;2.53;;
11522;SDS011;40093;43.224;27.910;2023-03-13T10:15:11;4.40;;;2.30;;
11522;SDS011;40093;43.224;27.910;2023-03-13T10:17:48;5.67;;;2.20;;
11522;SDS011;40093;43.224;27.910;2023-03-13T10:20:17;9.30;;;2.67;;
11522;SDS011;40093;43.224;27.910;2023-03-13T10:22:49;4.10;;;2.70;;
11522;SDS011;40093;43.224;27.910;2023-03-13T10:25:23;4.87;;;3.73;;
11522;SDS011;40093;43.224;27.910;2023-03-13T10:27:56;5.77;;;3.67;;
11522;SDS011;40093;43.224;27.910;2023-03-13T10:30:25;5.27;;;2.50;;
11522;SDS011;40093;43.224;27.910;2023-03-13T10:32:57;4.03;;;1.97;;
11522;SDS011;40093;43.224;27.910;2023-03-13T10:35:30;5.90;;;2.40;;
11522;SDS011;40093;43.224;27.910;2023-03-13T10:38:01;3.50;;;2.30;;
11522;SDS011;40093;43.224;27.910;2023-03-13T10:40:34;6.13;;;2.20;;
11522;SDS011;40093;43.224;27.910;2023-03-13T10:43:02;5.10;;;2.30;;
11522;SDS011;40093;43.224;27.910;2023-03-13T10:45:31;6.30;;;1.97;;
11522;SDS011;40093;43.224;27.910;2023-03-13T10:48:02;10.20;;;4.10;;
11522;SDS011;40093;43.224;27.910;2023-03-13T10:50:37;4.33;;;2.03;;
11522;SDS011;40093;43.224;27.910;2023-03-13T10:53:18;3.27;;;2.10;;
11522;SDS011;40093;43.224;27.910;2023-03-13T10:55:47;4.20;;;2.40;;
11522;SDS011;40093;43.224;27.910;2023-03-13T10:58:17;4.13;;;2.13;;
11522;SDS011;40093;43.224;27.910;2023-03-13T11:00:46;9.13;;;2.40;;
11522;SDS011;40093;43.224;27.910;2023-03-13T11:03:16;4.30;;;2.33;;
11522;SDS011;40093;43.224;27.910;2023-03-13T11:05:53;6.60;;;2.80;;
11522;SDS011;40093;43.224;27.910;2023-03-13T11:08:22;4.50;;;2.20;;
11522;SDS011;40093;43.224;27.910;2023-03-13T11:10:51;5.40;;;2.67;;
11522;SDS011;40093;43.224;27.910;2023-03-13T11:13:27;3.63;;;1.90;;
11522;SDS011;40093;43.224;27.910;2023-03-13T11:15:56;6.50;;;2.47;;
11522;SDS011;40093;43.224;27.910;2023-03-13T11:18:29;3.40;;;2.10;;
11522;SDS011;40093;43.224;27.910;2023-03-13T11:21:00;3.47;;;2.10;;
11522;SDS011;40093;43.224;27.910;2023-03-13T11:23:29;4.93;;;2.27;;
11522;SDS011;40093;43.224;27.910;2023-03-13T11:26:05;4.67;;;2.20;;
11522;SDS011;40093;43.224;27.910;2023-03-13T11:28:44;7.23;;;2.10;;
11522;SDS011;40093;43.224;27.910;2023-03-13T11:31:18;5.63;;;2.23;;
11522;SDS011;40093;43.224;27.910;2023-03-13T11:33:54;3.70;;;2.00;;
11522;SDS011;40093;43.224;27.910;2023-03-13T11:36:31;5.07;;;2.03;;
11522;SDS011;40093;43.224;27.910;2023-03-13T11:39:13;6.77;;;2.40;;
11522;SDS011;40093;43.224;27.910;2023-03-13T11:42:00;7.03;;;3.80;;
11522;SDS011;40093;43.224;27.910;2023-03-13T11:44:35;7.53;;;3.83;;
11522;SDS011;40093;43.224;27.910;2023-03-13T11:50:18;10.00;;;5.63;;
11522;SDS011;40093;43.224;27.910;2023-03-13T11:52:57;6.97;;;3.10;;
11522;SDS011;40093;43.224;27.910;2023-03-13T11:55:36;4.13;;;2.60;;
11522;SDS011;40093;43.224;27.910;2023-03-13T11:58:25;4.27;;;2.60;;
11522;SDS011;40093;43.224;27.910;2023-03-13T12:01:15;4.97;;;2.17;;
11522;SDS011;40093;43.224;27.910;2023-03-13T12:03:45;8.47;;;3.23;;
11522;SDS011;40093;43.224;27.910;2023-03-13T12:06:24;7.07;;;3.63;;
11522;SDS011;40093;43.224;27.910;2023-03-13T12:08:57;5.03;;;2.63;;
11522;SDS011;40093;43.224;27.910;2023-03-13T12:11:30;4.57;;;2.40;;
11522;SDS011;40093;43.224;27.910;2023-03-13T12:14:01;3.97;;;2.50;;
11522;SDS011;40093;43.224;27.910;2023-03-13T12:16:36;3.63;;;2.77;;
11522;SDS011;40093;43.224;27.910;2023-03-13T12:19:07;4.17;;;1.97;;
11522;SDS011;40093;43.224;27.910;2023-03-13T12:21:41;4.23;;;1.83;;
11522;SDS011;40093;43.224;27.910;2023-03-13T12:24:16;3.50;;;2.20;;
11522;SDS011;40093;43.224;27.910;2023-03-13T12:26:48;3.50;;;2.07;;
11522;SDS011;40093;43.224;27.910;2023-03-13T12:29:23;4.93;;;2.10;;
11522;SDS011;40093;43.224;27.910;2023-03-13T12:32:08;4.27;;;2.10;;
11522;SDS011;40093;43.224;27.910;2023-03-13T12:34:42;5.13;;;3.30;;
11522;SDS011;40093;43.224;27.910;2023-03-13T12:37:22;3.90;;;2.37;;
11522;SDS011;40093;43.224;27.910;2023-03-13T12:39:56;5.03;;;2.27;;
11522;SDS011;40093;43.224;27.910;2023-03-13T12:42:32;3.87;;;2.47;;
11522;SDS011;40093;43.224;27.910;2023-03-13T12:45:09;4.57;;;2.97;;
11522;SDS011;40093;43.224;27.910;2023-03-13T12:50:52;3.00;;;2.17;;
11522;SDS011;40093;43.224;27.910;2023-03-13T12:53:41;3.00;;;2.00;;
11522;SDS011;40093;43.224;27.910;2023-03-13T12:56:38;6.07;;;2.80;;
11522;SDS011;40093;43.224;27.910;2023-03-13T12:59:19;3.60;;;2.60;;
11522;SDS011;40093;43.224;27.910;2023-03-13T13:01:51;4.03;;;2.30;;
11522;SDS011;40093;43.224;27.910;2023-03-13T13:04:20;4.37;;;2.60;;
11522;SDS011;40093;43.224;27.910;2023-03-13T13:06:51;3.57;;;2.20;;
11522;SDS011;40093;43.224;27.910;2023-03-13T13:09:23;2.97;;;2.10;;
11522;SDS011;40093;43.224;27.910;2023-03-13T13:11:52;3.10;;;2.10;;
11522;SDS011;40093;43.224;27.910;2023-03-13T13:17:33;5.43;;;2.70;;
11522;SDS011;40093;43.224;27.910;2023-03-13T13:20:32;5.87;;;2.30;;
11522;SDS011;40093;43.224;27.910;2023-03-13T13:23:17;5.43;;;3.77;;
11522;SDS011;40093;43.224;27.910;2023-03-13T13:25:48;3.97;;;2.20;;
11522;SDS011;40093;43.224;27.910;2023-03-13T13:31:00;3.47;;;2.40;;
11522;SDS011;40093;43.224;27.910;2023-03-13T13:33:47;5.93;;;3.13;;
11522;SDS011;40093;43.224;27.910;2023-03-13T13:36:28;5.50;;;2.80;;
11522;SDS011;40093;43.224;27.910;2023-03-13T13:38:56;3.97;;;3.03;;
11522;SDS011;40093;43.224;27.910;2023-03-13T13:41:26;2.87;;;2.50;;
11522;SDS011;40093;43.224;27.910;2023-03-13T13:46:55;3.80;;;2.23;;
11522;SDS011;40093;43.224;27.910;2023-03-13T13:49:36;3.17;;;2.10;;
11522;SDS011;40093;43.224;27.910;2023-03-13T13:58:02;3.43;;;2.20;;
11522;SDS011;40093;43.224;27.910;2023-03-13T14:00:35;7.93;;;3.40;;
11522;SDS011;40093;43.224;27.910;2023-03-13T14:03:15;4.83;;;3.20;;
11522;SDS011;40093;43.224;27.910;2023-03-13T14:05:44;5.97;;;1.93;;
11522;SDS011;40093;43.224;27.910;2023-03-13T14:08:15;3.77;;;2.53;;
11522;SDS011;40093;43.224;27.910;2023-03-13T14:10:45;5.23;;;2.30;;
11522;SDS011;40093;43.224;27.910;2023-03-13T14:13:18;2.97;;;2.10;;
11522;SDS011;40093;43.224;27.910;2023-03-13T14:15:46;2.93;;;1.90;;
11522;SDS011;40093;43.224;27.910;2023-03-13T14:18:17;3.53;;;2.30;;
11522;SDS011;40093;43.224;27.910;2023-03-13T14:20:53;6.80;;;5.07;;
11522;SDS011;40093;43.224;27.910;2023-03-13T14:23:36;15.80;;;7.97;;
11522;SDS011;40093;43.224;27.910;2023-03-13T14:26:10;3.87;;;2.20;;
11522;SDS011;40093;43.224;27.910;2023-03-13T14:28:42;2.67;;;2.23;;
11522;SDS011;40093;43.224;27.910;2023-03-13T14:31:12;4.73;;;1.97;;
11522;SDS011;40093;43.224;27.910;2023-03-13T14:33:47;3.10;;;2.50;;
11522;SDS011;40093;43.224;27.910;2023-03-13T14:36:15;5.93;;;3.73;;
11522;SDS011;40093;43.224;27.910;2023-03-13T14:38:49;7.90;;;4.93;;
11522;SDS011;40093;43.224;27.910;2023-03-13T14:41:26;3.37;;;2.30;;
11522;SDS011;40093;43.224;27.910;2023-03-13T14:44:02;2.53;;;1.53;;
11522;SDS011;40093;43.224;27.910;2023-03-13T14:46:31;4.37;;;2.47;;
11522;SDS011;40093;43.224;27.910;2023-03-13T14:49:13;3.73;;;2.00;;
11522;SDS011;40093;43.224;27.910;2023-03-13T14:51:43;3.00;;;2.17;;
11522;SDS011;40093;43.224;27.910;2023-03-13T14:54:26;4.47;;;2.60;;
11522;SDS011;40093;43.224;27.910;2023-03-13T14:57:02;4.90;;;3.30;;
11522;SDS011;40093;43.224;27.910;2023-03-13T14:59:32;4.53;;;3.37;;
11522;SDS011;40093;43.224;27.910;2023-03-13T15:01:59;5.27;;;2.80;;